createdAt,value
2022-08-03T00:01:50.589Z,101268.00
2022-08-03T00:04:17.463Z,101267.38
2022-08-03T00:06:44.270Z,101264.22
2022-08-03T00:09:11.484Z,101261.50
2022-08-03T00:11:38.496Z,101264.41
2022-08-03T00:14:06.588Z,101255.81
2022-08-03T00:16:33.627Z,101253.47
2022-08-03T00:19:01.134Z,101264.13
2022-08-03T00:21:29.108Z,101258.03
2022-08-03T00:23:55.825Z,101260.75
2022-08-03T00:26:22.421Z,101264.47
2022-08-03T00:28:50.195Z,101261.53
2022-08-03T00:31:16.941Z,101254.59
2022-08-03T00:34:03.694Z,101255.84
2022-08-03T00:36:30.808Z,101257.50
2022-08-03T00:38:57.339Z,101247.19
2022-08-03T00:41:23.849Z,101248.44
2022-08-03T00:43:50.437Z,101251.78
2022-08-03T00:46:21.287Z,101250.66
2022-08-03T00:48:53.325Z,101252.94
2022-08-03T00:51:23.974Z,101254.59
2022-08-03T00:53:50.989Z,101249.31
2022-08-03T00:56:18.330Z,101250.13
2022-08-03T00:58:46.142Z,101242.56
2022-08-03T01:01:13.428Z,101238.13
2022-08-03T01:03:40.278Z,101245.66
2022-08-03T01:06:15.843Z,101253.34
2022-08-03T01:09:15.420Z,101244.38
2022-08-03T01:12:10.561Z,101247.03
2022-08-03T01:14:55.545Z,101244.47
2022-08-03T01:17:49.624Z,101248.66
2022-08-03T01:20:18.526Z,101244.59
2022-08-03T01:23:17.361Z,101246.94
2022-08-03T01:26:03.611Z,101241.25
2022-08-03T01:29:00.954Z,101243.97
2022-08-03T01:32:53.615Z,101244.19
2022-08-03T01:34:47.663Z,101241.03
2022-08-03T01:37:19.031Z,101233.28
2022-08-03T01:39:45.912Z,101233.47
2022-08-03T01:42:15.325Z,101236.19
2022-08-03T01:44:44.998Z,101237.38
2022-08-03T01:47:12.215Z,101239.91
2022-08-03T01:49:43.277Z,101238.22
2022-08-03T01:52:12.686Z,101236.53
2022-08-03T01:54:45.085Z,101240.06
2022-08-03T01:57:12.544Z,101240.28
2022-08-03T01:59:40.570Z,101227.34
2022-08-03T02:02:16.033Z,101227.34
2022-08-03T02:04:58.414Z,101229.19
2022-08-03T02:07:26.985Z,101226.03
2022-08-03T02:09:55.621Z,101223.72
2022-08-03T02:12:24.991Z,101230.34
2022-08-03T02:14:52.007Z,101224.28
2022-08-03T02:17:39.761Z,101225.53
2022-08-03T02:20:09.273Z,101223.41
2022-08-03T02:22:39.141Z,101234.25
2022-08-03T02:25:06.737Z,101234.44
2022-08-03T02:27:35.311Z,101226.69
2022-08-03T02:30:08.635Z,101216.22
2022-08-03T02:32:37.804Z,101211.63
2022-08-03T02:35:07.047Z,101227.47
2022-08-03T02:37:37.427Z,101214.13
2022-08-03T02:40:12.052Z,101217.22
2022-08-03T02:42:40.934Z,101221.16
2022-08-03T02:45:13.834Z,101218.63
2022-08-03T02:47:54.374Z,101214.44
2022-08-03T02:50:23.059Z,101214.84
2022-08-03T02:52:50.968Z,101212.53
2022-08-03T02:55:20.484Z,101205.22
2022-08-03T02:57:48.039Z,101207.75
2022-08-03T03:00:27.687Z,101208.59
2022-08-03T03:02:57.491Z,101205.66
2022-08-03T03:05:52.873Z,101213.59
2022-08-03T03:08:17.905Z,101210.50
2022-08-03T03:10:47.716Z,101212.38
2022-08-03T03:13:15.530Z,101208.00
2022-08-03T03:15:44.223Z,101207.16
2022-08-03T03:18:11.858Z,101207.16
2022-08-03T03:20:40.815Z,101205.47
2022-08-03T03:23:09.214Z,101217.34
2022-08-03T03:25:36.436Z,101216.72
2022-08-03T03:28:03.172Z,101218.59
2022-08-03T03:30:33.574Z,101221.47
2022-08-03T03:33:00.811Z,101220.84
2022-08-03T03:35:27.996Z,101219.34
2022-08-03T03:37:55.113Z,101220.56
2022-08-03T03:40:22.542Z,101218.03
2022-08-03T03:42:50.331Z,101218.41
2022-08-03T03:45:17.830Z,101212.38
2022-08-03T03:47:44.564Z,101220.50
2022-08-03T03:50:11.683Z,101218.81
2022-08-03T03:52:38.251Z,101226.13
2022-08-03T03:55:05.177Z,101224.63
2022-08-03T03:57:31.619Z,101214.81
2022-08-03T03:59:58.084Z,101221.72
2022-08-03T04:02:24.774Z,101224.44
2022-08-03T04:05:09.925Z,101217.16
2022-08-03T04:08:11.152Z,101221.13
2022-08-03T04:10:59.998Z,101218.41
2022-08-03T04:13:37.593Z,101220.09
2022-08-03T04:16:07.155Z,101219.47
2022-08-03T04:18:36.060Z,101223.66
2022-08-03T04:21:05.239Z,101217.19
2022-08-03T04:23:35.001Z,101216.38
2022-08-03T04:26:04.008Z,101222.44
2022-08-03T04:28:32.488Z,101227.66
2022-08-03T04:31:01.237Z,101221.84
2022-08-03T04:33:30.304Z,101227.09
2022-08-03T04:36:02.342Z,101224.00
2022-08-03T04:38:32.976Z,101225.47
2022-08-03T04:41:01.058Z,101217.16
2022-08-03T04:43:28.668Z,101226.56
2022-08-03T04:45:56.484Z,101220.97
2022-08-03T04:48:23.163Z,101233.75
2022-08-03T04:50:49.936Z,101226.22
2022-08-03T04:53:18.122Z,101233.78
2022-08-03T04:55:46.307Z,101236.75
2022-08-03T04:58:12.816Z,101222.84
2022-08-03T05:00:39.379Z,101236.81
2022-08-03T05:03:20.454Z,101236.22
2022-08-03T05:06:01.980Z,101235.47
2022-08-03T05:08:46.514Z,101242.78
2022-08-03T05:11:13.614Z,101241.03
2022-08-03T05:13:40.053Z,101241.88
2022-08-03T05:16:06.494Z,101232.97
2022-08-03T05:18:33.242Z,101246.38
2022-08-03T05:20:59.644Z,101244.38
2022-08-03T05:23:26.100Z,101236.25
2022-08-03T05:25:52.620Z,101236.75
2022-08-03T05:28:19.098Z,101244.53
2022-08-03T05:30:46.289Z,101237.91
2022-08-03T05:33:12.846Z,101249.06
2022-08-03T05:35:57.956Z,101240.13
2022-08-03T05:38:28.798Z,101235.59
2022-08-03T05:41:21.021Z,101242.09
2022-08-03T05:43:47.483Z,101238.38
2022-08-03T05:46:14.342Z,101239.88
2022-08-03T05:48:42.048Z,101241.81
2022-08-03T05:51:11.776Z,101238.94
2022-08-03T05:53:39.083Z,101229.31
2022-08-03T05:56:14.220Z,101236.19
2022-08-03T05:58:46.583Z,101233.25
2022-08-03T06:01:13.503Z,101233.06
2022-08-03T06:03:40.110Z,101221.69
2022-08-03T06:06:06.560Z,101233.56
2022-08-03T06:08:33.003Z,101232.91
2022-08-03T06:10:59.563Z,101230.94
2022-08-03T06:13:26.064Z,101231.31
2022-08-03T06:15:52.508Z,101219.66
2022-08-03T06:18:19.078Z,101229.81
2022-08-03T06:20:45.562Z,101225.91
2022-08-03T06:23:17.837Z,101232.13
2022-08-03T06:25:46.507Z,101227.41
2022-08-03T06:28:42.426Z,101228.56
2022-08-03T06:31:01.224Z,101236.03
2022-08-03T06:34:30.152Z,101241.56
2022-08-03T06:36:14.582Z,101240.38
2022-08-03T06:38:41.215Z,101240.28
2022-08-03T06:41:07.634Z,101232.16
2022-08-03T06:43:37.519Z,101239.56
2022-08-03T06:46:05.607Z,101242.34
2022-08-03T06:48:32.409Z,101234.69
2022-08-03T06:50:59.306Z,101240.66
2022-08-03T06:53:26.024Z,101237.56
2022-08-03T06:55:54.887Z,101240.09
2022-08-03T06:58:22.343Z,101241.78
2022-08-03T07:00:48.816Z,101245.41
2022-08-03T07:03:15.223Z,101248.41
2022-08-03T07:05:42.906Z,101251.19
2022-08-03T07:08:09.884Z,101252.28
2022-08-03T07:10:36.909Z,101258.84
2022-08-03T07:13:04.180Z,101261.56
2022-08-03T07:15:53.984Z,101257.38
2022-08-03T07:18:17.504Z,101263.22
2022-08-03T07:20:54.096Z,101265.16
2022-08-03T07:23:20.641Z,101264.31
2022-08-03T07:25:47.143Z,101264.03
2022-08-03T07:28:13.556Z,101260.09
2022-08-03T07:30:40.032Z,101258.53
2022-08-03T07:33:06.464Z,101262.09
2022-08-03T07:35:32.892Z,101255.84
2022-08-03T07:37:59.355Z,101259.94
2022-08-03T07:40:28.672Z,101269.06
2022-08-03T07:42:58.757Z,101248.91
2022-08-03T07:45:26.619Z,101257.25
2022-08-03T07:47:54.323Z,101255.22
2022-08-03T07:50:22.451Z,101254.75
2022-08-03T07:52:50.224Z,101261.13
2022-08-03T07:55:18.763Z,101254.19
2022-08-03T07:57:45.378Z,101263.00
2022-08-03T08:00:19.369Z,101262.09
2022-08-03T08:02:46.205Z,101263.53
2022-08-03T08:05:12.959Z,101263.69
2022-08-03T08:07:40.063Z,101260.91
2022-08-03T08:10:08.133Z,101263.00
2022-08-03T08:12:34.637Z,101258.50
2022-08-03T08:15:01.514Z,101258.25
2022-08-03T08:17:28.010Z,101253.00
2022-08-03T08:19:54.533Z,101258.00
2022-08-03T08:22:28.081Z,101258.66
2022-08-03T08:24:57.722Z,101249.91
2022-08-03T08:27:24.182Z,101255.00
2022-08-03T08:29:54.244Z,101253.13
2022-08-03T08:32:23.083Z,101256.34
2022-08-03T08:34:49.655Z,101248.97
2022-08-03T08:37:16.415Z,101255.63
2022-08-03T08:39:42.854Z,101254.69
2022-08-03T08:42:10.399Z,101257.59
2022-08-03T08:44:38.923Z,101276.03
2022-08-03T08:47:05.979Z,101260.63
2022-08-03T08:49:35.734Z,101257.97
2022-08-03T08:52:04.588Z,101264.41
2022-08-03T08:54:54.957Z,101259.09
2022-08-03T08:57:42.021Z,101272.03
2022-08-03T09:00:14.602Z,101269.13
2022-08-03T09:02:45.882Z,101268.09
2022-08-03T09:05:13.945Z,101250.81
2022-08-03T09:07:42.355Z,101266.84
2022-08-03T09:10:13.233Z,101272.97
2022-08-03T09:12:48.102Z,101265.66
2022-08-03T09:15:33.970Z,101266.31
2022-08-03T09:18:02.604Z,101267.59
2022-08-03T09:20:31.796Z,101257.56
2022-08-03T09:23:18.998Z,101260.75
2022-08-03T09:25:58.528Z,101262.31
2022-08-03T09:28:53.956Z,101256.75
2022-08-03T09:31:30.134Z,101261.84
2022-08-03T09:33:59.875Z,101251.69
2022-08-03T09:36:42.990Z,101254.53
2022-08-03T09:39:19.710Z,101230.25
2022-08-03T09:42:06.229Z,101256.25
2022-08-03T09:44:42.222Z,101265.38
2022-08-03T09:47:11.187Z,101260.06
2022-08-03T09:49:40.932Z,101258.44
2022-08-03T09:52:31.861Z,101261.41
2022-08-03T09:55:01.942Z,101260.81
2022-08-03T09:57:30.773Z,101254.16
2022-08-03T10:00:11.818Z,101251.50
2022-08-03T10:02:39.491Z,101245.66
2022-08-03T10:05:08.291Z,101247.00
2022-08-03T10:07:49.773Z,101256.47
2022-08-03T10:10:30.468Z,101243.59
2022-08-03T10:13:00.027Z,101249.06
2022-08-03T10:16:22.546Z,101250.34
2022-08-03T10:18:13.545Z,101248.28
2022-08-03T10:20:51.593Z,101241.84
2022-08-03T10:23:21.484Z,101250.94
2022-08-03T10:25:52.678Z,101246.97
2022-08-03T10:28:21.207Z,101231.19
2022-08-03T10:30:51.247Z,101228.81
2022-08-03T10:33:52.120Z,101227.22
2022-08-03T10:36:07.881Z,101233.75
2022-08-03T10:38:47.213Z,101233.66
2022-08-03T10:41:16.988Z,101222.13
2022-08-03T10:43:58.478Z,101232.09
2022-08-03T10:46:26.956Z,101232.38
2022-08-03T10:48:54.304Z,101234.75
2022-08-03T10:51:21.639Z,101226.19
2022-08-03T10:53:55.325Z,101226.47
2022-08-03T10:56:53.465Z,101227.81
2022-08-03T10:59:46.704Z,101228.03
2022-08-03T11:02:14.398Z,101229.50
2022-08-03T11:04:41.864Z,101230.84
2022-08-03T11:07:18.134Z,101234.78
2022-08-03T11:09:51.280Z,101232.25
2022-08-03T11:12:37.436Z,101234.78
2022-08-03T11:15:07.536Z,101228.41
2022-08-03T11:17:46.635Z,101219.75
2022-08-03T11:20:53.446Z,101232.19
2022-08-03T11:24:03.305Z,101228.16
2022-08-03T11:26:30.720Z,101218.63
2022-08-03T11:29:30.488Z,101216.69
2022-08-03T11:31:57.345Z,101218.16
2022-08-03T11:34:24.674Z,101218.16
2022-08-03T11:37:26.328Z,101217.56
2022-08-03T11:39:56.835Z,101223.19
2022-08-03T11:42:23.396Z,101223.13
2022-08-03T11:44:50.912Z,101221.09
2022-08-03T11:47:18.193Z,101219.53
2022-08-03T11:49:47.229Z,101213.59
2022-08-03T11:52:14.836Z,101220.13
2022-08-03T11:54:41.418Z,101216.81
2022-08-03T11:57:07.919Z,101209.47
2022-08-03T11:59:35.649Z,101212.25
2022-08-03T12:02:13.425Z,101208.88
2022-08-03T12:04:58.414Z,101193.03
2022-08-03T12:08:03.338Z,101197.22
2022-08-03T12:10:15.074Z,101209.16
2022-08-03T12:12:46.406Z,101191.59
2022-08-03T12:15:13.565Z,101199.03
2022-08-03T12:17:41.656Z,101207.19
2022-08-03T12:20:10.182Z,101193.53
2022-08-03T12:22:40.485Z,101202.13
2022-08-03T12:25:08.411Z,101198.00
2022-08-03T12:27:36.073Z,101191.31
2022-08-03T12:30:03.027Z,101196.16
2022-08-03T12:32:30.618Z,101190.19
2022-08-03T12:35:01.092Z,101189.28
2022-08-03T12:37:29.124Z,101196.06
2022-08-03T12:40:02.365Z,101191.22
2022-08-03T12:42:38.682Z,101194.00
2022-08-03T12:45:25.549Z,101195.25
2022-08-03T12:48:02.500Z,101185.25
2022-08-03T12:50:34.108Z,101191.56
2022-08-03T12:53:04.554Z,101186.00
2022-08-03T12:55:56.241Z,101190.63
2022-08-03T12:58:34.201Z,101188.91
2022-08-03T13:01:01.641Z,101186.34
2022-08-03T13:03:50.196Z,101180.06
2022-08-03T13:06:22.265Z,101188.06
2022-08-03T13:08:49.400Z,101190.75
2022-08-03T13:11:19.608Z,101186.63
2022-08-03T13:13:46.271Z,101203.13
2022-08-03T13:16:18.729Z,101191.59
2022-08-03T13:18:47.242Z,101193.41
2022-08-03T13:21:16.031Z,101187.13
2022-08-03T13:23:43.804Z,101191.56
2022-08-03T13:26:10.985Z,101189.69
2022-08-03T13:28:38.380Z,101180.06
2022-08-03T13:31:05.556Z,101185.00
2022-08-03T13:33:33.804Z,101176.97
2022-08-03T13:36:00.399Z,101185.50
2022-08-03T13:38:27.313Z,101196.09
2022-08-03T13:40:55.031Z,101183.84
2022-08-03T13:43:22.490Z,101182.94
2022-08-03T13:45:53.540Z,101179.94
2022-08-03T13:48:35.916Z,101180.88
2022-08-03T13:51:05.644Z,101182.06
2022-08-03T13:53:48.179Z,101171.69
2022-08-03T13:56:14.593Z,101172.69
2022-08-03T13:58:41.055Z,101174.91
2022-08-03T14:01:07.530Z,101164.06
2022-08-03T14:03:34.219Z,101153.88
2022-08-03T14:06:00.621Z,101164.19
2022-08-03T14:08:27.057Z,101159.88
2022-08-03T14:10:53.535Z,101163.38
2022-08-03T14:13:20.003Z,101156.97
2022-08-03T14:15:49.886Z,101159.88
2022-08-03T14:18:28.673Z,101157.16
2022-08-03T14:21:05.581Z,101144.38
2022-08-03T14:23:34.062Z,101166.44
2022-08-03T14:26:00.520Z,101149.19
2022-08-03T14:28:27.094Z,101161.34
2022-08-03T14:30:55.931Z,101155.13
2022-08-03T14:33:23.347Z,101149.97
2022-08-03T14:35:50.979Z,101157.69
2022-08-03T14:38:18.267Z,101155.78
2022-08-03T14:40:44.852Z,101150.66
2022-08-03T14:43:11.300Z,101157.47
2022-08-03T14:45:39.254Z,101157.97
2022-08-03T14:50:29.295Z,101146.34
2022-08-03T14:50:53.013Z,101150.16
2022-08-03T14:53:20.028Z,101148.53
2022-08-03T14:55:49.793Z,101132.50
2022-08-03T14:58:22.504Z,101144.69
2022-08-03T15:00:50.834Z,101143.88
2022-08-03T15:03:21.383Z,101135.00
2022-08-03T15:05:47.912Z,101140.31
2022-08-03T15:08:14.557Z,101133.78
2022-08-03T15:10:44.181Z,101133.78
2022-08-03T15:13:12.824Z,101131.31
2022-08-03T15:15:39.512Z,101133.59
2022-08-03T15:18:06.104Z,101136.84
2022-08-03T15:20:43.822Z,101128.19
2022-08-03T15:23:11.923Z,101117.53
2022-08-03T15:26:30.239Z,101130.69
2022-08-03T15:28:25.033Z,101122.38
2022-08-03T15:30:54.545Z,101125.16
2022-08-03T15:33:21.195Z,101124.09
2022-08-03T15:35:47.859Z,101118.78
2022-08-03T15:38:14.454Z,101115.53
2022-08-03T15:40:41.236Z,101126.69
2022-08-03T15:43:08.005Z,101124.94
2022-08-03T15:45:36.763Z,101125.69
2022-08-03T15:48:05.627Z,101121.25
2022-08-03T15:50:32.163Z,101123.94
2022-08-03T15:52:58.586Z,101123.41
2022-08-03T15:55:25.236Z,101116.72
2022-08-03T15:59:03.928Z,101118.75
2022-08-03T16:00:38.988Z,101116.53
2022-08-03T16:03:05.788Z,101125.41
2022-08-03T16:05:32.458Z,101118.63
2022-08-03T16:08:03.512Z,101119.66
2022-08-03T16:10:32.316Z,101111.09
2022-08-03T16:13:00.037Z,101109.84
2022-08-03T16:15:27.217Z,101113.38
2022-08-03T16:17:53.969Z,101109.19
2022-08-03T16:20:29.242Z,101116.00
2022-08-03T16:23:05.496Z,101122.09
2022-08-03T16:25:39.702Z,101115.81
2022-08-03T16:28:13.474Z,101114.88
2022-08-03T16:30:43.118Z,101116.41
2022-08-03T16:33:10.857Z,101113.22
2022-08-03T16:35:37.878Z,101115.25
2022-08-03T16:38:10.002Z,101114.84
2022-08-03T16:40:37.493Z,101112.78
2022-08-03T16:43:17.908Z,101116.75
2022-08-03T16:45:46.895Z,101119.41
2022-08-03T16:48:16.968Z,101119.31
2022-08-03T16:50:44.466Z,101120.00
2022-08-03T16:53:15.606Z,101115.06
2022-08-03T16:55:52.392Z,101107.75
2022-08-03T16:58:34.335Z,101110.97
2022-08-03T17:01:10.938Z,101108.91
2022-08-03T17:04:02.672Z,101109.34
2022-08-03T17:06:36.508Z,101115.34
2022-08-03T17:09:19.076Z,101123.38
2022-08-03T17:11:49.235Z,101115.88
2022-08-03T17:14:17.530Z,101119.47
2022-08-03T17:16:52.192Z,101116.00
2022-08-03T17:19:21.693Z,101114.66
2022-08-03T17:22:04.183Z,101109.91
2022-08-03T17:24:34.162Z,101113.31
2022-08-03T17:27:08.933Z,101124.72
2022-08-03T17:29:44.881Z,101124.41
2022-08-03T17:32:16.293Z,101113.56
2022-08-03T17:34:47.188Z,101114.25
2022-08-03T17:37:49.874Z,101116.00
2022-08-03T17:40:01.193Z,101110.53
2022-08-03T17:42:33.107Z,101116.16
2022-08-03T17:45:03.761Z,101118.94
2022-08-03T17:47:42.032Z,101104.53
2022-08-03T17:50:25.275Z,101115.47
2022-08-03T17:53:06.755Z,101110.28
2022-08-03T17:55:55.170Z,101099.72
2022-08-03T17:58:45.023Z,101114.06
2022-08-03T18:02:06.491Z,101111.00
2022-08-03T18:04:46.340Z,101112.72
2022-08-03T18:07:25.610Z,101123.19
2022-08-03T18:10:11.229Z,101118.72
2022-08-03T18:12:54.264Z,101126.81
2022-08-03T18:15:26.850Z,101127.63
2022-08-03T18:18:02.116Z,101125.34
2022-08-03T18:20:38.500Z,101130.59
2022-08-03T18:23:10.293Z,101129.91
2022-08-03T18:25:44.454Z,101136.91
2022-08-03T18:28:14.582Z,101130.03
2022-08-03T18:30:53.910Z,101134.78
2022-08-03T18:34:17.380Z,101131.28
2022-08-03T18:36:18.074Z,101131.34
2022-08-03T18:38:51.653Z,101135.34
2022-08-03T18:41:32.921Z,101137.41
2022-08-03T18:44:07.941Z,101136.38
2022-08-03T18:47:18.026Z,101144.19
2022-08-03T18:50:07.669Z,101140.72
2022-08-03T18:52:40.194Z,101140.78
2022-08-03T18:55:33.141Z,101142.75
2022-08-03T18:58:18.149Z,101137.25
2022-08-03T19:01:00.057Z,101151.03
2022-08-03T19:03:43.455Z,101148.47
2022-08-03T19:06:19.970Z,101148.97
2022-08-03T19:08:54.233Z,101152.75
2022-08-03T19:12:14.332Z,101158.72
2022-08-03T19:14:28.670Z,101157.22
2022-08-03T19:17:07.079Z,101162.34
2022-08-03T19:19:43.995Z,101168.09
2022-08-03T19:22:16.008Z,101171.41
2022-08-03T19:24:45.142Z,101164.84
2022-08-03T19:27:12.315Z,101171.63
2022-08-03T19:29:58.855Z,101176.97
2022-08-03T19:32:32.022Z,101177.03
2022-08-03T19:35:00.590Z,101172.44
2022-08-03T19:37:38.705Z,101179.41
2022-08-03T19:40:10.711Z,101178.97
2022-08-03T19:42:44.110Z,101180.25
2022-08-03T19:45:14.583Z,101178.63
2022-08-03T19:48:01.508Z,101180.94
2022-08-03T19:50:32.690Z,101185.38
2022-08-03T19:53:06.795Z,101181.91
2022-08-03T19:55:40.809Z,101190.69
2022-08-03T19:58:17.787Z,101190.78
2022-08-03T20:00:55.464Z,101192.53
2022-08-03T20:03:24.929Z,101192.00
2022-08-03T20:05:51.908Z,101198.97
2022-08-03T20:08:20.696Z,101193.31
2022-08-03T20:10:48.096Z,101201.88
2022-08-03T20:13:19.399Z,101198.09
2022-08-03T20:15:46.144Z,101196.84
2022-08-03T20:18:16.747Z,101198.06
2022-08-03T20:20:48.373Z,101192.69
2022-08-03T20:23:19.612Z,101197.72
2022-08-03T20:28:49.829Z,101196.81
2022-08-03T20:31:18.655Z,101201.22
2022-08-03T20:36:31.883Z,101191.69
2022-08-03T20:38:58.958Z,101196.59
2022-08-03T20:41:26.499Z,101203.72
2022-08-03T20:43:52.997Z,101204.44
2022-08-03T20:46:32.821Z,101206.47
2022-08-03T20:49:04.526Z,101217.50
2022-08-03T20:51:49.646Z,101214.03
2022-08-03T20:54:29.797Z,101213.53
2022-08-03T20:57:03.639Z,101220.56
2022-08-03T20:59:46.828Z,101229.31
2022-08-03T21:02:19.722Z,101219.56
2022-08-03T21:04:57.234Z,101219.88
2022-08-03T21:08:04.005Z,101213.56
2022-08-03T21:10:15.495Z,101222.00
2022-08-03T21:13:06.880Z,101197.84
2022-08-03T21:13:07.168Z,101198.84
2022-08-03T21:16:06.633Z,101232.84
2022-08-03T21:18:44.389Z,101229.59
2022-08-03T21:21:14.238Z,101226.97
2022-08-03T21:23:49.142Z,101235.00
2022-08-03T21:26:18.004Z,101235.09
2022-08-03T21:28:49.279Z,101233.28
2022-08-03T21:31:24.884Z,101230.63
2022-08-03T21:33:57.500Z,101216.66
2022-08-03T21:36:26.556Z,101227.22
2022-08-03T21:38:56.647Z,101228.75
2022-08-03T21:41:25.365Z,101238.66
2022-08-03T21:43:51.938Z,101233.84
2022-08-03T21:46:19.979Z,101239.16
2022-08-03T21:48:51.445Z,101230.81
2022-08-03T21:51:20.120Z,101235.88
2022-08-03T21:54:00.356Z,101236.31
2022-08-03T21:56:36.962Z,101232.41
2022-08-03T21:59:07.058Z,101230.56
2022-08-03T22:01:35.345Z,101232.53
2022-08-03T22:04:07.558Z,101235.00
2022-08-03T22:06:42.265Z,101238.88
2022-08-03T22:09:09.047Z,101231.56
2022-08-03T22:11:37.301Z,101239.41
2022-08-03T22:14:04.737Z,101238.38
2022-08-03T22:16:31.516Z,101244.50
2022-08-03T22:18:58.011Z,101238.63
2022-08-03T22:21:36.225Z,101243.72
2022-08-03T22:24:05.587Z,101249.81
2022-08-03T22:26:35.359Z,101241.44
2022-08-03T22:29:05.954Z,101246.25
2022-08-03T22:31:57.395Z,101247.59
2022-08-03T22:34:26.420Z,101247.63
2022-08-03T22:37:00.320Z,101241.38
2022-08-03T22:39:28.959Z,101245.16
2022-08-03T22:41:58.792Z,101245.81
2022-08-03T22:44:26.906Z,101250.88
2022-08-03T22:46:53.370Z,101246.06
2022-08-03T22:49:20.617Z,101256.81
2022-08-03T22:51:47.419Z,101258.06
2022-08-03T22:54:14.498Z,101257.25
2022-08-03T22:56:41.341Z,101262.72
2022-08-03T22:59:41.232Z,101253.31
2022-08-03T23:01:59.720Z,101257.31
2022-08-03T23:04:28.410Z,101263.19
2022-08-03T23:07:03.649Z,101260.06
2022-08-03T23:09:31.280Z,101255.47
2022-08-03T23:12:01.267Z,101261.34
2022-08-03T23:14:30.462Z,101255.47
2022-08-03T23:17:03.070Z,101251.50
2022-08-03T23:19:30.479Z,101259.50
2022-08-03T23:22:05.697Z,101247.38
2022-08-03T23:24:36.452Z,101245.28
2022-08-03T23:27:05.600Z,101254.09
2022-08-03T23:29:34.868Z,101249.31
2022-08-03T23:32:02.122Z,101255.16
2022-08-03T23:34:49.553Z,101253.53
2022-08-03T23:37:17.100Z,101250.81
2022-08-03T23:39:48.011Z,101255.84
2022-08-03T23:42:17.136Z,101255.03
2022-08-03T23:44:45.089Z,101244.16
2022-08-03T23:47:14.711Z,101248.34
2022-08-03T23:49:41.315Z,101257.53
2022-08-03T23:52:20.224Z,101247.50
2022-08-03T23:54:51.702Z,101251.88
2022-08-03T23:57:27.174Z,101251.47
